Time;durP1;ratioP1;P1;durP2;ratioP2;P2;SDS_P1;SDS_P2;PMS_P1;PMS_P2;Temp;Humidity;BMP_temperature;BMP_pressure;BME280_temperature;BME280_humidity;BME280_pressure;Samples;Min_cycle;Max_cycle;Signal;HPM_P1;HPM_P2
2023/04/07 00:03:12;;;;;;;12.37;5.60;;;;;;;5.47;85.57;101060.81;5075780;57;1136815;-77
2023/04/07 00:08:18;;;;;;;9.20;5.70;;;;;;;5.51;86.60;101061.03;5121913;55;1136666;-76
2023/04/07 00:13:24;;;;;;;10.27;6.07;;;;;;;5.52;86.84;101060.97;5104142;56;1134582;-77
2023/04/07 00:18:29;;;;;;;9.60;5.33;;;;;;;5.53;87.23;101061.81;5041237;56;1137106;-76
2023/04/07 00:23:35;;;;;;;9.20;5.17;;;;;;;5.44;87.44;101053.09;5096317;56;1134706;-77
2023/04/07 00:28:41;;;;;;;11.80;6.43;;;;;;;5.27;87.73;101052.11;5076712;56;1134580;-76
2023/04/07 00:33:48;;;;;;;15.43;7.67;;;;;;;5.20;88.66;101048.52;5076357;56;1136693;-76
2023/04/07 00:38:53;;;;;;;14.63;9.33;;;;;;;5.11;89.38;101043.27;5025349;56;1136719;-77
2023/04/07 00:43:59;;;;;;;13.80;6.00;;;;;;;4.98;90.12;101038.66;5018246;57;1136608;-76
2023/04/07 00:49:06;;;;;;;12.78;5.70;;;;;;;4.89;90.76;101032.05;4967280;57;1136800;-77
2023/04/07 00:54:11;;;;;;;6.90;5.30;;;;;;;4.92;92.95;101034.08;5013476;56;1136733;-77
2023/04/07 00:59:17;;;;;;;17.42;7.80;;;;;;;4.93;93.38;101023.98;5066906;56;1136714;-76
2023/04/07 01:04:48;;;;;;;9.95;6.15;;;;;;;4.97;93.98;101014.68;4985445;57;1136625;-77
2023/04/07 01:10:06;;;;;;;12.70;7.93;;;;;;;4.99;95.00;101015.00;4992960;57;1134514;-77
2023/04/07 01:15:22;;;;;;;17.03;9.33;;;;;;;5.01;95.00;101013.16;4975203;57;1136650;-77
2023/04/07 01:20:33;;;;;;;12.78;5.15;;;;;;;4.89;94.83;101011.94;5008677;57;1136608;-77
2023/04/07 01:26:17;;;;;;;6.40;4.67;;;;;;;4.71;96.15;100999.70;4988931;56;1136637;-76
2023/04/07 01:31:26;;;;;;;6.87;4.97;;;;;;;4.58;98.22;100988.91;4805060;59;1134663;-76
2023/04/07 01:36:33;;;;;;;10.82;5.33;;;;;;;4.58;98.22;100988.91;4796917;59;1136896;-76
2023/04/07 01:41:40;;;;;;;10.77;6.67;;;;;;;4.53;99.88;100986.13;4817162;59;1136736;-77
2023/04/07 01:46:45;;;;;;;12.43;6.97;;;;;;;4.45;100.00;100980.37;4800951;58;1136828;-76
2023/04/07 01:51:52;;;;;;;13.17;5.70;;;;;;;4.43;100.00;100975.69;4797719;58;1138843;-77
2023/04/07 01:56:57;;;;;;;8.35;4.90;;;;;;;4.49;100.00;100976.24;4809875;59;1138938;-78
2023/04/07 02:02:04;;;;;;;12.00;6.40;;;;;;;4.54;100.00;100974.28;4779199;59;1138814;-77
2023/04/07 02:07:16;;;;;;;9.00;5.67;;;;;;;4.47;100.00;100971.53;4869516;58;1138921;-76
2023/04/07 02:12:26;;;;;;;12.63;6.10;;;;;;;4.41;100.00;100961.34;4896347;57;1136771;-76
2023/04/07 02:17:40;;;;;;;15.90;6.97;;;;;;;4.36;100.00;100963.31;4926241;57;1138711;-77
2023/04/07 02:22:46;;;;;;;16.17;8.73;;;;;;;4.33;100.00;100954.73;4777648;59;1138830;-77
2023/04/07 02:27:53;;;;;;;18.10;8.53;;;;;;;4.31;100.00;100950.03;4793602;60;1138768;-76
2023/04/07 02:32:58;;;;;;;14.67;6.20;;;;;;;4.31;100.00;100945.64;4873088;59;1148862;-76
2023/04/07 02:38:04;;;;;;;13.70;6.57;;;;;;;4.28;100.00;100949.70;4870142;58;1138784;-76
2023/04/07 02:43:11;;;;;;;10.43;6.67;;;;;;;4.31;100.00;100943.02;4798294;59;1138833;-76
2023/04/07 02:48:17;;;;;;;15.67;6.83;;;;;;;4.29;100.00;100940.08;4739341;59;1138911;-75
2023/04/07 02:53:22;;;;;;;12.47;6.37;;;;;;;4.21;100.00;100929.96;4728612;60;1138882;-77
2023/04/07 02:58:28;;;;;;;11.77;6.10;;;;;;;4.20;100.00;100932.19;4694676;59;1138839;-75
2023/04/07 03:03:34;;;;;;;13.08;6.60;;;;;;;4.26;100.00;100932.39;4809251;59;1141010;-77
2023/04/07 03:08:41;;;;;;;12.53;7.33;;;;;;;4.30;100.00;100928.23;4857917;58;1141054;-75
2023/04/07 03:13:47;;;;;;;9.90;6.30;;;;;;;4.29;100.00;100925.67;4739825;60;1138854;-74
2023/04/07 03:18:52;;;;;;;11.57;6.53;;;;;;;4.27;100.00;100917.07;4799886;58;1136935;-74
2023/04/07 03:23:59;;;;;;;11.83;7.00;;;;;;;4.22;100.00;100921.20;4855332;58;1139305;-76
2023/04/07 03:29:05;;;;;;;13.33;6.23;;;;;;;4.17;100.00;100917.47;4933124;58;1138890;-75
2023/04/07 03:34:13;;;;;;;20.40;7.17;;;;;;;4.17;100.00;100917.47;4918090;58;1138799;-74
2023/04/07 03:39:22;;;;;;;12.53;6.62;;;;;;;4.11;100.00;100914.29;4915243;58;1138719;-76
2023/04/07 03:44:29;;;;;;;10.68;6.20;;;;;;;4.10;100.00;100903.42;4893097;58;1138815;-76
2023/04/07 03:49:37;;;;;;;11.25;6.15;;;;;;;4.12;100.00;100908.98;4860376;59;1140931;-76
2023/04/07 03:54:43;;;;;;;11.40;6.83;;;;;;;4.20;100.00;100906.86;4886095;58;1141012;-74
2023/04/07 03:59:50;;;;;;;12.20;7.13;;;;;;;4.16;100.00;100902.67;4904584;59;1138974;-77
2023/04/07 04:04:56;;;;;;;11.50;6.40;;;;;;;4.08;100.00;100906.56;4888151;59;1138867;-75
2023/04/07 04:10:02;;;;;;;11.95;7.22;;;;;;;4.04;100.00;100899.30;5085795;56;1138856;-75
2023/04/07 04:15:10;;;;;;;10.87;6.80;;;;;;;4.00;100.00;100898.19;5168565;56;1138808;-75
2023/04/07 04:20:16;;;;;;;11.23;6.03;;;;;;;4.00;100.00;100902.11;5149516;56;1138759;-74
2023/04/07 04:25:24;;;;;;;12.00;6.63;;;;;;;4.00;100.00;100900.34;5104833;56;1140939;-76
2023/04/07 04:30:32;;;;;;;13.85;7.92;;;;;;;3.98;100.00;100899.56;5112672;56;1138924;-76
2023/04/07 04:35:39;;;;;;;12.90;6.33;;;;;;;4.00;100.00;100900.80;5019778;56;1138750;-73
2023/04/07 04:40:46;;;;;;;11.73;6.40;;;;;;;4.01;100.00;100898.58;5008996;57;1138716;-73
2023/04/07 04:45:54;;;;;;;13.67;7.17;;;;;;;4.01;100.00;100894.20;5048852;56;1138773;-75
2023/04/07 04:51:01;;;;;;;11.53;6.47;;;;;;;4.07;100.00;100897.86;5111710;56;1140999;-75
2023/04/07 04:56:08;;;;;;;12.07;7.00;;;;;;;4.21;100.00;100899.86;5054943;56;1140953;-74
2023/04/07 05:01:18;;;;;;;16.33;8.27;;;;;;;4.27;100.00;100894.81;5016080;56;1138707;-75
2023/04/07 05:06:27;;;;;;;11.80;7.20;;;;;;;4.28;100.00;100896.02;5022483;55;1143599;-75
2023/04/07 05:11:35;;;;;;;14.43;7.67;;;;;;;4.16;100.00;100891.35;5009294;55;1138788;-74
2023/04/07 05:16:40;;;;;;;16.13;7.43;;;;;;;4.16;100.00;100900.52;5009223;57;1138721;-73
2023/04/07 05:21:47;;;;;;;9.73;6.03;;;;;;;4.17;100.00;100900.91;5028426;56;1140986;-74
2023/04/07 05:26:53;;;;;;;11.63;7.07;;;;;;;4.21;100.00;100895.47;5031396;56;1138813;-73
2023/04/07 05:32:00;;;;;;;31.33;15.28;;;;;;;4.27;100.00;100891.73;5041778;56;1138693;-73
2023/04/07 05:37:07;;;;;;;16.27;9.27;;;;;;;4.30;100.00;100890.72;5061304;56;1140783;-72
2023/04/07 05:42:13;;;;;;;15.47;7.83;;;;;;;4.28;100.00;100892.59;5041263;56;1138819;-73
2023/04/07 05:47:20;;;;;;;16.40;8.77;;;;;;;4.24;100.00;100892.72;5111129;56;1138867;-75
2023/04/07 05:52:27;;;;;;;14.50;7.60;;;;;;;4.22;100.00;100884.55;5146683;56;1138846;-73
2023/04/07 05:57:34;;;;;;;19.50;10.20;;;;;;;4.22;100.00;100894.56;5046001;56;1139031;-73
2023/04/07 06:02:41;;;;;;;18.02;9.65;;;;;;;4.27;100.00;100891.73;4987216;56;1140936;-71
2023/04/07 06:07:48;;;;;;;16.97;9.57;;;;;;;4.28;100.00;100892.59;4979098;57;1138757;-74
2023/04/07 06:12:54;;;;;;;15.23;8.53;;;;;;;4.30;100.00;100890.27;4953872;57;1138916;-74
2023/04/07 06:18:00;;;;;;;13.62;7.60;;;;;;;4.35;100.00;100895.30;4959432;57;1140820;-73
2023/04/07 06:23:06;;;;;;;20.10;12.37;;;;;;;4.33;100.00;100891.89;4993768;56;1138766;-75
2023/04/07 06:28:11;;;;;;;18.77;10.00;;;;;;;4.33;100.00;100903.22;5031062;56;1141001;-75
2023/04/07 06:33:18;;;;;;;17.53;9.13;;;;;;;4.37;100.00;100907.41;5031321;56;1142895;-74
2023/04/07 06:38:24;;;;;;;17.27;10.18;;;;;;;4.40;100.00;100902.50;5053931;56;1140910;-74
2023/04/07 06:43:30;;;;;;;17.70;9.97;;;;;;;4.47;100.00;100898.66;5049021;55;1147788;-72
2023/04/07 06:48:38;;;;;;;22.52;14.70;;;;;;;4.49;100.00;100894.20;4981472;57;1139175;-75
2023/04/07 06:53:43;;;;;;;32.70;18.95;;;;;;;4.39;100.00;100886.39;5051148;57;1141011;-75
2023/04/07 06:58:49;;;;;;;17.73;11.07;;;;;;;4.46;100.00;100883.86;5001090;56;1140808;-74
2023/04/07 07:03:55;;;;;;;22.27;14.00;;;;;;;4.55;100.00;100888.23;4950399;56;1143005;-74
2023/04/07 07:09:02;;;;;;;21.35;13.75;;;;;;;4.60;100.00;100883.61;4948881;57;1143129;-75
2023/04/07 07:14:08;;;;;;;22.83;13.90;;;;;;;4.68;100.00;100884.56;4990221;57;1143121;-74
2023/04/07 07:19:14;;;;;;;48.27;27.40;;;;;;;4.69;100.00;100882.80;5044587;56;1140911;-75
2023/04/07 07:24:19;;;;;;;22.30;12.20;;;;;;;4.66;100.00;100886.41;5059987;56;1140888;-73
2023/04/07 07:29:25;;;;;;;20.10;11.63;;;;;;;4.69;100.00;100885.42;5013728;57;1143048;-75
2023/04/07 07:34:32;;;;;;;19.90;10.70;;;;;;;4.74;100.00;100891.27;5011507;56;1142899;-76
2023/04/07 07:39:38;;;;;;;28.13;14.47;;;;;;;4.88;100.00;100894.11;5028522;57;1143023;-76
2023/04/07 07:44:43;;;;;;;25.13;13.60;;;;;;;4.95;100.00;100902.89;5060713;57;1142856;-76
2023/04/07 07:49:49;;;;;;;27.70;17.03;;;;;;;5.01;100.00;100900.91;4989243;56;1140837;-75
2023/04/07 07:55:04;;;;;;;29.33;16.43;;;;;;;5.04;100.00;100901.59;4944584;57;1141026;-74
2023/04/07 08:00:11;;;;;;;23.47;10.90;;;;;;;5.10;100.00;100901.30;4963005;56;1143013;-73
2023/04/07 08:06:21;;;;;;;;;;;;;;;;;;;;;
2023/04/07 08:11:52;;;;;;;20.70;11.90;;;;;;;5.20;100.00;100903.00;4613776;59;1141028;-74
2023/04/07 08:18:06;;;;;;;;;;;;;;;;;;;;;
2023/04/07 08:29:39;;;;;;;18.27;10.43;;;;;;;5.24;100.00;100910.65;4247480;66;1141021;-75
2023/04/07 08:34:45;;;;;;;29.45;14.30;;;;;;;5.28;100.00;100904.80;4235287;67;1141187;-75
2023/04/07 08:40:20;;;;;;;35.63;16.30;;;;;;;5.28;100.00;100906.11;4220306;68;1143410;-75
2023/04/07 08:45:46;;;;;;;24.40;13.43;;;;;;;5.25;100.00;100893.14;4193236;68;1143129;-75
2023/04/07 08:50:53;;;;;;;31.53;15.23;;;;;;;5.34;100.00;100903.66;4266166;65;1143150;-75
2023/04/07 08:56:00;;;;;;;19.07;11.50;;;;;;;5.37;100.00;100910.03;4244445;66;1143341;-75
2023/04/07 09:01:10;;;;;;;26.13;15.47;;;;;;;5.37;100.00;100906.95;4261752;66;1141114;-76
2023/04/07 09:06:16;;;;;;;22.30;11.87;;;;;;;5.34;100.00;100907.13;4239021;67;1143234;-74
2023/04/07 09:11:22;;;;;;;24.93;14.67;;;;;;;5.38;100.00;100906.48;4275951;66;1143431;-74
2023/04/07 09:16:33;;;;;;;20.40;11.77;;;;;;;5.39;100.00;100905.56;4328055;65;1143269;-74
2023/04/07 09:21:52;;;;;;;21.43;12.60;;;;;;;5.42;100.00;100902.80;4361348;65;1141250;-73
2023/04/07 09:27:16;;;;;;;23.27;14.70;;;;;;;5.47;100.00;100900.80;4323323;65;1143284;-76
2023/04/07 09:32:43;;;;;;;27.80;16.50;;;;;;;5.49;100.00;100898.48;4291113;65;1143118;-73
2023/04/07 09:38:07;;;;;;;32.87;17.77;;;;;;;5.53;100.00;100895.22;4297614;64;1141075;-75
2023/04/07 09:43:19;;;;;;;40.13;20.40;;;;;;;5.56;100.00;100894.61;4700329;61;1140938;-74
2023/04/07 09:48:25;;;;;;;32.03;15.23;;;;;;;5.63;100.00;100897.78;4626601;62;1143061;-75
2023/04/07 09:53:51;;;;;;;34.60;15.88;;;;;;;5.72;100.00;100887.27;4640070;62;1143267;-74
2023/04/07 09:58:58;;;;;;;30.96;18.16;;;;;;;5.84;100.00;100890.09;4632106;62;1143087;-72
2023/04/07 10:04:05;;;;;;;34.30;17.90;;;;;;;5.90;100.00;100889.83;4638841;62;1143087;-75
2023/04/07 10:09:11;;;;;;;35.95;17.35;;;;;;;5.94;100.00;100880.02;4587488;62;1141095;-74
2023/04/07 10:14:19;;;;;;;42.33;18.77;;;;;;;5.97;100.00;100876.74;4641774;62;1143204;-75
2023/04/07 10:19:26;;;;;;;39.47;18.50;;;;;;;6.03;100.00;100876.05;4622304;62;1142949;-73
2023/04/07 10:24:48;;;;;;;68.87;35.87;;;;;;;6.12;100.00;100880.80;4621885;62;1143221;-76
2023/04/07 10:29:56;;;;;;;37.08;20.43;;;;;;;6.18;100.00;100877.39;4631957;62;1143383;-76
2023/04/07 10:35:01;;;;;;;41.03;21.83;;;;;;;6.24;100.00;100868.34;4572747;62;1143160;-75
2023/04/07 10:40:30;;;;;;;35.78;19.32;;;;;;;6.23;100.00;100864.02;4560514;62;1141087;-73
2023/04/07 10:45:52;;;;;;;38.30;22.53;;;;;;;6.22;100.00;100867.58;4577878;62;1142978;-75
2023/04/07 10:51:14;;;;;;;38.63;22.30;;;;;;;6.24;100.00;100866.56;4559977;62;1143050;-75
2023/04/07 10:56:25;;;;;;;42.63;23.77;;;;;;;6.31;100.00;100859.19;4561858;62;1143315;-75
2023/04/07 11:02:30;;;;;;;42.17;22.33;;;;;;;6.41;100.00;100860.86;4507401;62;1143078;-76
2023/04/07 11:08:05;;;;;;;46.17;23.27;;;;;;;6.38;100.00;100850.05;4673813;60;1142988;-74
2023/04/07 11:14:30;;;;;;;39.27;22.00;;;;;;;6.47;100.00;100857.41;5401689;52;46961;-75
2023/04/07 11:20:23;;;;;;;31.03;17.47;;;;;;;6.47;100.00;100853.47;5156446;54;1138753;-75
2023/04/07 11:26:26;;;;;;;37.58;18.57;;;;;;;6.50;100.00;100852.46;4786778;58;1143329;-75
2023/04/07 11:49:38;;;;;;;28.60;16.57;;;;;;;6.79;100.00;100841.16;5113182;55;47170;-74
2023/04/07 11:55:36;;;;;;;;;;;;;;;;;;;;;
2023/04/07 12:23:31;;;;;;;;;;;;;;;6.93;100.00;100833.33;4829759;58;1138857;-70
2023/04/07 12:28:37;;;;;;;66.93;35.13;;;;;;;7.02;100.00;100833.28;4913184;57;976871;-71
2023/04/07 12:33:43;;;;;;;44.83;21.20;;;;;;;7.08;100.00;100830.75;4971964;56;1141349;-72
2023/04/07 12:38:49;;;;;;;55.17;31.93;;;;;;;7.14;100.00;100827.31;4939437;57;1221212;-68
2023/04/07 12:43:55;;;;;;;39.87;22.93;;;;;;;7.14;100.00;100823.83;4905930;57;1143637;-73
2023/04/07 12:49:01;;;;;;;40.33;19.53;;;;;;;7.16;100.00;100824.13;4973644;57;1143031;-73
2023/04/07 12:54:07;;;;;;;44.20;23.83;;;;;;;7.19;100.00;100820.44;4931987;57;1143135;-72
2023/04/07 12:59:13;;;;;;;47.07;22.37;;;;;;;7.19;100.00;100822.60;4862949;58;1143270;-69
2023/04/07 13:04:18;;;;;;;52.10;25.43;;;;;;;7.29;100.00;100821.61;4739658;59;1143621;-71
2023/04/07 13:09:25;;;;;;;41.90;22.00;;;;;;;7.43;100.00;100819.47;4823727;58;1143031;-77
2023/04/07 13:14:30;;;;;;;36.20;19.87;;;;;;;7.54;100.00;100820.98;4834945;58;1143260;-77
2023/04/07 13:19:36;;;;;;;34.30;18.37;;;;;;;7.59;100.00;100819.78;4836413;59;1143264;-77
2023/04/07 13:24:42;;;;;;;33.30;17.80;;;;;;;7.60;100.00;100825.42;4863364;58;1143101;-76
2023/04/07 13:29:47;;;;;;;39.20;20.47;;;;;;;7.58;100.00;100824.67;4889990;58;1143156;-76
2023/04/07 13:34:53;;;;;;;36.37;21.00;;;;;;;7.61;100.00;100822.33;4846958;57;1143197;-77
2023/04/07 13:39:59;;;;;;;35.57;19.23;;;;;;;7.65;100.00;100827.76;4800485;59;1143173;-77
2023/04/07 13:45:05;;;;;;;31.60;19.03;;;;;;;7.70;100.00;100829.19;4788055;58;1143393;-77
2023/04/07 13:50:11;;;;;;;54.30;28.50;;;;;;;7.78;100.00;100815.56;4873166;57;1143107;-77
2023/04/07 13:55:19;;;;;;;40.38;23.83;;;;;;;7.89;100.00;100817.06;4825828;57;1143090;-76
2023/04/07 14:00:24;;;;;;;34.80;22.23;;;;;;;7.92;100.00;100815.56;4878877;57;1144058;-77
2023/04/07 14:05:29;;;;;;;58.07;33.90;;;;;;;7.93;100.00;100808.52;4900237;58;1143115;-76
2023/04/07 14:10:35;;;;;;;53.40;30.87;;;;;;;7.93;100.00;100808.04;4844296;57;1143412;-76
2023/04/07 14:15:41;;;;;;;34.20;20.60;;;;;;;7.95;100.00;100798.70;4951805;59;1143351;-76
2023/04/07 14:20:47;;;;;;;50.90;25.30;;;;;;;7.98;100.00;100796.73;4902548;59;1143126;-76
2023/04/07 14:25:53;;;;;;;37.50;22.93;;;;;;;8.01;100.00;100794.38;4892961;58;1143071;-76
2023/04/07 14:31:00;;;;;;;81.13;35.50;;;;;;;8.08;100.00;100800.50;4759398;58;1143293;-77
2023/04/07 14:36:09;;;;;;;74.77;40.43;;;;;;;8.13;100.00;100804.14;4843383;59;1143326;-74
2023/04/07 14:41:15;;;;;;;42.97;24.23;;;;;;;8.21;100.00;100800.56;4836226;59;1143458;-75
2023/04/07 14:46:22;;;;;;;39.30;21.43;;;;;;;8.27;100.00;100792.25;4837679;58;1143317;-74
2023/04/07 14:51:27;;;;;;;60.25;32.20;;;;;;;8.33;100.00;100799.81;4817633;59;1143599;-74
2023/04/07 14:56:33;;;;;;;31.57;18.27;;;;;;;8.35;100.00;100790.03;4828136;58;1143267;-75
2023/04/07 15:01:39;;;;;;;29.10;18.70;;;;;;;8.38;100.00;100797.74;4827205;58;1143249;-77
2023/04/07 15:06:44;;;;;;;29.33;19.53;;;;;;;8.43;100.00;100793.47;4796368;58;1143130;-75
2023/04/07 15:11:50;;;;;;;34.35;19.20;;;;;;;8.48;100.00;100789.23;4752203;59;1143126;-73
2023/04/07 15:16:55;;;;;;;36.23;18.80;;;;;;;8.49;100.00;100785.19;4757691;59;1143129;-73
2023/04/07 15:22:01;;;;;;;34.73;20.43;;;;;;;8.52;100.00;100790.27;4764450;58;1143080;-76
2023/04/07 15:27:15;;;;;;;46.87;27.07;;;;;;;8.60;100.00;100788.43;4761084;58;1143146;-74
2023/04/07 15:32:19;;;;;;;45.12;27.90;;;;;;;8.66;100.00;100790.21;4769666;58;1143328;-77
2023/04/07 15:37:27;;;;;;;44.77;25.53;;;;;;;8.66;100.00;100791.53;4810439;58;1143186;-74
2023/04/07 15:42:38;;;;;;;35.03;20.47;;;;;;;8.69;100.00;100796.61;4823099;58;1143263;-75
2023/04/07 15:47:40;;;;;;;45.10;24.43;;;;;;;8.71;100.00;100794.69;4808098;58;1143508;-77
2023/04/07 15:52:45;;;;;;;57.83;30.77;;;;;;;8.73;100.00;100791.48;4863044;57;1143105;-73
2023/04/07 15:57:52;;;;;;;65.70;35.77;;;;;;;8.77;100.00;100797.41;4857720;58;1143142;-74
2023/04/07 16:02:57;;;;;;;57.62;32.73;;;;;;;8.80;100.00;100792.78;4877572;58;1143073;-75
2023/04/07 16:08:03;;;;;;;55.30;33.77;;;;;;;8.79;100.00;100796.37;4841359;58;1143093;-74
2023/04/07 16:13:09;;;;;;;78.63;40.37;;;;;;;8.76;100.00;100797.03;4850020;58;1143168;-74
2023/04/07 16:18:15;;;;;;;80.03;40.43;;;;;;;8.77;100.00;100798.25;4850892;58;1143094;-74
2023/04/07 16:23:21;;;;;;;59.03;31.70;;;;;;;8.80;100.00;100797.21;4893876;58;1143234;-77
2023/04/07 16:28:27;;;;;;;51.20;28.62;;;;;;;8.83;100.00;100800.13;4928906;57;1143150;-74
2023/04/07 16:33:35;;;;;;;54.80;32.43;;;;;;;8.86;100.00;100799.93;4910278;59;1143262;-76
2023/04/07 16:38:40;;;;;;;69.30;35.87;;;;;;;8.92;100.00;100805.63;4808344;58;1143697;-75
2023/04/07 16:43:46;;;;;;;52.50;29.12;;;;;;;8.91;100.00;100810.53;4820274;58;1143049;-76
2023/04/07 16:48:52;;;;;;;56.30;34.33;;;;;;;8.87;100.00;100805.55;4876039;59;1143328;-76
2023/04/07 16:53:58;;;;;;;99.57;53.00;;;;;;;8.89;100.00;100808.94;4818072;59;1143128;-74
2023/04/07 16:59:03;;;;;;;107.93;52.70;;;;;;;8.90;100.00;100819.39;4963897;57;1143061;-75
2023/04/07 17:04:09;;;;;;;112.43;53.67;;;;;;;8.93;100.00;100823.15;4936921;57;1145657;-77
2023/04/07 17:09:17;;;;;;;117.08;60.10;;;;;;;9.01;100.00;100831.89;5009442;57;1145648;-77
2023/04/07 17:14:23;;;;;;;129.10;68.90;;;;;;;9.03;100.00;100832.14;4844494;58;1145525;-75
2023/04/07 17:19:29;;;;;;;111.07;59.77;;;;;;;9.05;100.00;100839.48;4886808;58;1145447;-75
2023/04/07 17:24:35;;;;;;;108.03;56.33;;;;;;;9.10;100.00;100849.73;4897644;58;1145457;-74
2023/04/07 17:29:41;;;;;;;107.87;56.57;;;;;;;9.16;100.00;100851.52;4860209;58;1145286;-78
2023/04/07 17:34:46;;;;;;;134.00;68.70;;;;;;;9.24;100.00;100854.95;4794406;58;1145535;-69
2023/04/07 17:39:52;;;;;;;141.47;75.00;;;;;;;9.28;100.00;100863.52;4836980;58;1145356;-70
2023/04/07 17:44:57;;;;;;;97.90;54.00;;;;;;;9.21;100.00;100866.17;4965737;57;1145169;-70
2023/04/07 17:50:03;;;;;;;99.67;54.17;;;;;;;9.10;100.00;100865.57;4943959;57;1143199;-71
2023/04/07 17:55:11;;;;;;;107.90;55.85;;;;;;;9.11;100.00;100871.22;4827357;58;1143156;-70
2023/04/07 18:00:17;;;;;;;127.80;66.07;;;;;;;9.15;100.00;100875.36;4788896;58;1145146;-67
2023/04/07 18:05:23;;;;;;;138.43;72.17;;;;;;;9.15;100.00;100880.16;4914858;57;1145302;-70
2023/04/07 18:10:29;;;;;;;101.53;52.83;;;;;;;9.09;100.00;100887.16;4878629;57;1145367;-70
2023/04/07 18:15:35;;;;;;;64.10;34.10;;;;;;;8.99;100.00;100880.80;4886696;57;1145108;-70
2023/04/07 18:20:41;;;;;;;54.60;27.77;;;;;;;8.97;100.00;100899.83;4765788;59;1143167;-67
2023/04/07 18:25:46;;;;;;;44.70;26.43;;;;;;;8.92;100.00;100900.59;4820996;58;1143129;-71
2023/04/07 18:31:01;;;;;;;69.23;37.70;;;;;;;8.92;100.00;100901.91;4921176;57;1143203;-73
2023/04/07 18:36:08;;;;;;;63.33;37.43;;;;;;;8.94;100.00;100900.50;4851525;59;1143132;-70
2023/04/07 18:41:14;;;;;;;68.53;40.47;;;;;;;8.97;100.00;100907.75;4904322;57;1143190;-73
2023/04/07 18:46:20;;;;;;;55.93;34.77;;;;;;;8.94;100.00;100908.41;4934323;57;1143181;-68
2023/04/07 18:51:26;;;;;;;149.40;53.53;;;;;;;8.90;100.00;100925.37;4885435;58;1143181;-70
2023/04/07 18:56:32;;;;;;;198.00;79.57;;;;;;;8.86;100.00;100920.75;4961804;57;1145334;-73
2023/04/07 19:01:38;;;;;;;76.43;34.47;;;;;;;8.86;100.00;100925.22;4879336;58;1145477;-72
2023/04/07 19:06:44;;;;;;;87.37;33.67;;;;;;;8.84;100.00;100938.50;4872156;58;1143092;-69
2023/04/07 19:11:51;;;;;;;88.00;33.13;;;;;;;8.86;100.00;100941.86;4890293;57;1143123;-70
2023/04/07 19:16:56;;;;;;;40.70;23.97;;;;;;;8.85;100.00;100948.11;4949874;58;1143226;-69
2023/04/07 19:22:02;;;;;;;48.20;26.25;;;;;;;8.85;100.00;100952.53;4925694;57;1143172;-70
2023/04/07 19:27:08;;;;;;;42.33;24.17;;;;;;;8.85;100.00;100956.48;4830974;58;1143224;-73
2023/04/07 19:32:14;;;;;;;35.30;18.77;;;;;;;8.84;100.00;100954.80;4835258;58;1143227;-71
2023/04/07 19:37:19;;;;;;;30.23;18.77;;;;;;;8.81;100.00;100952.72;4951093;57;1143426;-71
2023/04/07 19:42:28;;;;;;;35.73;19.87;;;;;;;8.84;100.00;100964.02;4955526;57;1143189;-70
2023/04/07 19:47:32;;;;;;;32.30;19.47;;;;;;;8.83;100.00;100967.13;4930790;57;1143303;-72
2023/04/07 19:52:38;;;;;;;34.47;20.27;;;;;;;8.83;100.00;100967.13;4978565;57;1143824;-71
2023/04/07 19:57:43;;;;;;;54.33;29.90;;;;;;;8.84;100.00;100974.10;4878909;57;1143132;-69
2023/04/07 20:02:51;;;;;;;69.27;40.80;;;;;;;8.86;100.00;100980.60;4924771;58;1143051;-70
2023/04/07 20:07:57;;;;;;;31.63;20.47;;;;;;;8.90;100.00;100984.72;4898836;57;1143285;-68
2023/04/07 20:13:03;;;;;;;35.50;21.43;;;;;;;8.90;100.00;100982.08;4937237;57;1217464;-72
2023/04/07 20:18:09;;;;;;;34.17;20.47;;;;;;;8.89;100.00;100989.62;4967098;56;1143566;-68
2023/04/07 20:23:20;;;;;;;29.17;19.03;;;;;;;8.92;100.00;100998.66;4934736;57;1143412;-67
2023/04/07 20:28:23;;;;;;;33.20;21.57;;;;;;;8.93;100.00;101000.36;4919146;57;1143194;-73
2023/04/07 20:33:29;;;;;;;37.70;22.15;;;;;;;8.90;100.00;101001.39;4916285;57;1143000;-72
2023/04/07 20:38:34;;;;;;;30.55;19.32;;;;;;;8.87;100.00;101009.97;4910426;57;1143086;-74
2023/04/07 20:43:40;;;;;;;33.17;20.73;;;;;;;8.85;100.00;101014.52;4822479;58;1143253;-71
2023/04/07 20:48:46;;;;;;;40.00;21.27;;;;;;;8.81;100.00;101011.22;4919914;57;1143148;-68
2023/04/07 20:53:52;;;;;;;37.60;23.13;;;;;;;8.81;100.00;101019.13;4822172;58;1143186;-73
2023/04/07 20:58:57;;;;;;;33.93;22.27;;;;;;;8.81;100.00;101021.30;4986157;57;1143191;-69
2023/04/07 21:04:03;;;;;;;33.60;20.20;;;;;;;8.80;100.00;101028.83;4836119;58;1143088;-73
2023/04/07 21:09:10;;;;;;;34.60;19.17;;;;;;;8.78;100.00;101025.91;4912074;57;1143120;-71
2023/04/07 21:14:15;;;;;;;29.70;17.40;;;;;;;8.75;100.00;101019.02;4846249;58;1143774;-71
2023/04/07 21:19:21;;;;;;;33.55;17.73;;;;;;;8.75;100.00;101025.62;4944210;57;1143147;-72
2023/04/07 21:24:28;;;;;;;32.10;19.47;;;;;;;8.72;100.00;101023.16;4920718;57;1143129;-72
2023/04/07 21:29:34;;;;;;;36.00;20.43;;;;;;;8.69;100.00;101027.34;4941958;57;1143127;-70
2023/04/07 21:34:40;;;;;;;30.03;19.63;;;;;;;8.61;100.00;101029.58;4924957;57;1143644;-73
2023/04/07 21:39:45;;;;;;;37.73;20.57;;;;;;;8.55;100.00;101031.76;4896713;58;1143230;-71
2023/04/07 21:44:51;;;;;;;26.85;16.62;;;;;;;8.52;100.00;101035.89;4880947;58;1143345;-70
2023/04/07 21:49:58;;;;;;;32.70;18.77;;;;;;;8.48;100.00;101037.86;4858764;58;1143309;-70
2023/04/07 21:55:04;;;;;;;26.77;17.37;;;;;;;8.46;100.00;101041.05;4806676;58;1143363;-71
2023/04/07 22:00:11;;;;;;;33.02;19.10;;;;;;;8.46;100.00;101048.97;4831333;58;1143365;-69
2023/04/07 22:05:19;;;;;;;32.80;19.55;;;;;;;8.43;100.00;101051.78;4825886;58;1143273;-72
2023/04/07 22:10:25;;;;;;;29.77;17.67;;;;;;;8.37;100.00;101056.97;4916870;57;1143177;-72
2023/04/07 22:15:31;;;;;;;29.20;20.30;;;;;;;8.35;100.00;101052.72;4896640;58;1143154;-69
2023/04/07 22:20:37;;;;;;;30.60;18.10;;;;;;;8.36;100.00;101053.95;4887430;58;1143338;-73
2023/04/07 22:25:42;;;;;;;33.07;19.27;;;;;;;8.30;100.00;101052.95;4959769;57;1143299;-71
2023/04/07 22:30:48;;;;;;;29.73;19.13;;;;;;;8.23;100.00;101052.11;4902374;57;1143207;-69
2023/04/07 22:35:54;;;;;;;39.37;19.93;;;;;;;8.18;100.00;101058.95;4923403;57;1143345;-71
2023/04/07 22:41:00;;;;;;;30.47;19.00;;;;;;;8.15;100.00;101061.77;4901120;58;1143084;-70
2023/04/07 22:46:05;;;;;;;29.13;16.40;;;;;;;8.02;100.00;101068.70;4937145;57;1143125;-70
2023/04/07 22:51:11;;;;;;;27.58;16.90;;;;;;;7.95;100.00;101085.78;4991936;57;1144045;-69
2023/04/07 22:56:18;;;;;;;26.07;16.23;;;;;;;7.83;100.00;101088.66;5034177;56;1143813;-73
2023/04/07 23:01:23;;;;;;;24.80;14.98;;;;;;;7.80;100.00;101092.77;4992443;56;1143173;-71
2023/04/07 23:06:30;;;;;;;32.90;17.07;;;;;;;7.73;100.00;101089.66;4923827;56;1143329;-71
2023/04/07 23:11:36;;;;;;;25.07;16.50;;;;;;;7.72;100.00;101093.22;4940203;57;1143240;-70
2023/04/07 23:16:41;;;;;;;28.57;17.03;;;;;;;7.67;100.00;101091.30;4916756;57;1144012;-72
2023/04/07 23:21:47;;;;;;;27.97;16.17;;;;;;;7.55;100.00;101103.84;4919297;56;1143184;-72
2023/04/07 23:26:53;;;;;;;25.67;15.30;;;;;;;7.47;100.00;101099.95;4936027;56;1143137;-71
2023/04/07 23:31:58;;;;;;;28.17;17.23;;;;;;;7.47;100.00;101102.13;4918675;57;1143196;-74
2023/04/07 23:37:04;;;;;;;28.87;17.60;;;;;;;7.45;100.00;101099.19;4960348;57;1143254;-71
2023/04/07 23:42:10;;;;;;;28.67;18.32;;;;;;;7.44;100.00;101102.75;4980124;57;1143291;-71
2023/04/07 23:47:16;;;;;;;27.82;16.77;;;;;;;7.31;100.00;101106.06;4898084;58;1143147;-70
2023/04/07 23:52:22;;;;;;;30.55;16.07;;;;;;;7.24;100.00;101110.41;4887767;58;1141032;-71
2023/04/07 23:57:28;;;;;;;35.48;16.05;;;;;;;7.21;100.00;101115.36;4795815;59;1143119;-72
